Terminal Aerodrome Forecast
Issued by NWS Boise, ID

Home | Current Version | Previous Version | Text Only | Print | Product List | Glossary On
Versions: 1 2 3 4 5 6 7 8 9 10 11 12 13 14 15 16 17 18 19 20 21 22 23 24 25 26 27 28 29 30
000
FTUS45 KBOI 301728
TAFBNO
TAF
KBNO 301728Z 3018/3118 09020G30KT P6SM SCT150
     FM302000 18025G35KT P6SM VCTS SCT080CB BKN120
     FM310600 27012G20KT P6SM VCSH BKN050
     FM311100 23010KT P6SM OVC050=

USA.gov is the U.S. government's official web portal to all federal, state and local government web resources and services.